createdAt,value
2022-08-25T00:02:59.632Z,6.30
2022-08-25T00:13:29.841Z,6.00
2022-08-25T00:23:58.644Z,6.20
2022-08-25T00:34:30.765Z,4.80
2022-08-25T00:45:00.620Z,6.20
2022-08-25T00:55:35.883Z,6.70
2022-08-25T01:06:06.817Z,5.80
2022-08-25T01:16:37.287Z,5.50
2022-08-25T01:27:07.449Z,7.50
2022-08-25T01:37:37.309Z,6.20
2022-08-25T01:48:07.987Z,6.90
2022-08-25T01:58:38.913Z,6.60
2022-08-25T02:09:10.889Z,7.00
2022-08-25T02:19:40.097Z,6.50
2022-08-25T02:30:10.770Z,7.60
2022-08-25T02:40:39.944Z,8.00
2022-08-25T02:51:11.236Z,6.40
2022-08-25T03:01:40.694Z,6.00
2022-08-25T03:12:11.338Z,5.60
2022-08-25T03:22:40.190Z,6.60
2022-08-25T03:33:09.180Z,4.80
2022-08-25T03:43:38.205Z,5.00
2022-08-25T03:54:08.698Z,4.80
2022-08-25T04:04:38.101Z,4.60
2022-08-25T04:15:08.000Z,6.00
2022-08-25T04:25:37.082Z,4.30
2022-08-25T04:36:11.924Z,4.50
2022-08-25T04:46:41.732Z,6.60
2022-08-25T04:57:10.949Z,6.50
2022-08-25T05:07:40.784Z,5.70
2022-08-25T05:18:09.821Z,7.60
2022-08-25T05:28:41.103Z,7.10
2022-08-25T05:39:10.331Z,7.30
2022-08-25T05:49:39.319Z,9.20
2022-08-25T06:00:10.843Z,8.20
2022-08-25T06:10:39.931Z,8.60
2022-08-25T06:21:14.609Z,7.60
2022-08-25T06:31:43.828Z,9.30
2022-08-25T06:42:12.899Z,7.90
2022-08-25T06:52:41.845Z,7.30
2022-08-25T07:03:10.821Z,7.30
2022-08-25T07:13:41.187Z,7.00
2022-08-25T07:24:12.832Z,7.60
2022-08-25T07:34:58.910Z,7.60
2022-08-25T07:45:31.308Z,8.00
2022-08-25T07:56:00.278Z,8.00
2022-08-25T08:06:30.497Z,7.40
2022-08-25T08:17:00.058Z,7.30
2022-08-25T08:27:29.152Z,7.20
2022-08-25T08:37:57.955Z,7.20
2022-08-25T08:48:51.041Z,7.40
2022-08-25T08:59:29.921Z,8.20
2022-08-25T09:10:00.162Z,8.20
2022-08-25T09:20:44.840Z,8.80
2022-08-25T09:31:20.257Z,8.70
2022-08-25T09:41:52.986Z,10.40
2022-08-25T09:52:27.994Z,8.70
2022-08-25T10:03:12.197Z,8.50
2022-08-25T10:13:45.555Z,9.50
2022-08-25T10:24:15.749Z,9.60
2022-08-25T10:34:51.588Z,9.50
2022-08-25T10:45:44.956Z,10.10
2022-08-25T10:56:18.830Z,10.40
2022-08-25T11:06:54.731Z,10.00
2022-08-25T11:17:27.003Z,9.40
2022-08-25T11:28:05.381Z,10.30
2022-08-25T11:38:49.652Z,10.10
2022-08-25T11:49:41.021Z,9.70
2022-08-25T12:00:15.141Z,10.90
2022-08-25T12:11:06.108Z,9.00
2022-08-25T12:21:39.274Z,9.20
2022-08-25T12:32:41.418Z,8.90
2022-08-25T12:43:15.100Z,7.50
2022-08-25T12:53:52.760Z,8.30
2022-08-25T13:04:44.209Z,7.60
2022-08-25T13:15:16.299Z,6.80
2022-08-25T13:25:51.852Z,8.60
2022-08-25T13:36:40.445Z,7.00
2022-08-25T13:47:12.508Z,6.80
2022-08-25T13:57:46.227Z,7.70
2022-08-25T14:18:53.877Z,7.10
2022-08-25T14:29:25.269Z,6.20
2022-08-25T14:39:55.003Z,7.40
2022-08-25T14:50:24.757Z,7.50
2022-08-25T15:00:54.459Z,6.30
2022-08-25T15:11:23.441Z,7.30
2022-08-25T15:21:52.616Z,6.40
2022-08-25T15:32:21.599Z,7.30
2022-08-25T15:42:52.725Z,7.10
2022-08-25T15:53:21.714Z,6.10
2022-08-25T16:03:51.431Z,7.60
2022-08-25T16:14:20.448Z,7.40
2022-08-25T16:24:49.562Z,6.60
2022-08-25T16:35:18.606Z,7.30
2022-08-25T16:45:47.374Z,7.30
2022-08-25T16:56:16.520Z,7.30
2022-08-25T17:06:51.629Z,8.90
2022-08-25T17:17:21.749Z,9.00
2022-08-25T17:27:56.044Z,8.90
2022-08-25T17:38:28.401Z,8.70
2022-08-25T17:48:57.758Z,8.50
2022-08-25T17:59:28.013Z,9.20
2022-08-25T18:10:02.215Z,8.30
2022-08-25T18:20:31.244Z,9.90
2022-08-25T18:31:00.183Z,8.90
2022-08-25T18:41:30.380Z,8.90
2022-08-25T18:51:59.472Z,11.10
2022-08-25T19:02:28.979Z,9.80
2022-08-25T19:12:58.832Z,10.00
2022-08-25T19:23:39.021Z,9.60
2022-08-25T19:34:10.596Z,9.40
2022-08-25T19:44:41.052Z,7.30
2022-08-25T19:55:11.957Z,8.60
2022-08-25T20:05:41.822Z,8.10
2022-08-25T20:16:11.926Z,9.40
2022-08-25T20:26:41.147Z,10.50
2022-08-25T20:37:12.377Z,9.70
2022-08-25T20:47:42.061Z,10.20
2022-08-25T20:58:11.107Z,9.70
2022-08-25T21:08:46.597Z,7.60
2022-08-25T21:19:16.705Z,7.60
2022-08-25T21:29:55.526Z,8.30
2022-08-25T21:40:25.898Z,8.00
2022-08-25T21:51:04.079Z,8.40
2022-08-25T22:01:35.430Z,8.60
2022-08-25T22:12:05.266Z,8.10
2022-08-25T22:22:34.548Z,6.50
2022-08-25T22:33:03.863Z,7.60
2022-08-25T22:43:32.730Z,6.00
2022-08-25T22:54:02.873Z,9.40
2022-08-25T23:04:32.892Z,9.60
2022-08-25T23:15:02.177Z,8.40
2022-08-25T23:25:31.677Z,8.10
2022-08-25T23:36:08.536Z,5.10
2022-08-25T23:46:39.468Z,9.40
2022-08-25T23:57:08.800Z,8.20
